sensor_id;sensor_type;location;lat;lon;timestamp;pressure;altitude;pressure_sealevel;temperature;humidity
36092;BME280;22147;52.388;13.390;2023-06-14T00:01:14;101186.94;;;12.07;100.00
36092;BME280;22147;52.388;13.390;2023-06-14T00:03:43;101190.03;;;11.96;100.00
36092;BME280;22147;52.388;13.390;2023-06-14T00:06:14;101188.22;;;11.92;100.00
36092;BME280;22147;52.388;13.390;2023-06-14T00:08:43;101183.31;;;11.89;100.00
36092;BME280;22147;52.388;13.390;2023-06-14T00:11:13;101182.59;;;11.83;100.00
36092;BME280;22147;52.388;13.390;2023-06-14T00:13:43;101193.41;;;11.76;100.00
36092;BME280;22147;52.388;13.390;2023-06-14T00:16:13;101190.44;;;11.72;100.00
36092;BME280;22147;52.388;13.390;2023-06-14T00:18:44;101191.41;;;11.68;100.00
36092;BME280;22147;52.388;13.390;2023-06-14T00:21:13;101189.31;;;11.65;100.00
36092;BME280;22147;52.388;13.390;2023-06-14T00:23:44;101192.56;;;11.58;100.00
36092;BME280;22147;52.388;13.390;2023-06-14T00:26:14;101188.28;;;11.52;100.00
36092;BME280;22147;52.388;13.390;2023-06-14T00:28:44;101193.19;;;11.46;100.00
36092;BME280;22147;52.388;13.390;2023-06-14T00:31:14;101187.63;;;11.46;100.00
36092;BME280;22147;52.388;13.390;2023-06-14T00:33:44;101197.75;;;11.42;100.00
36092;BME280;22147;52.388;13.390;2023-06-14T00:36:14;101196.13;;;11.41;100.00
36092;BME280;22147;52.388;13.390;2023-06-14T00:38:44;101197.75;;;11.42;100.00
36092;BME280;22147;52.388;13.390;2023-06-14T00:41:14;101191.56;;;11.45;100.00
36092;BME280;22147;52.388;13.390;2023-06-14T00:43:43;101201.22;;;11.48;100.00
36092;BME280;22147;52.388;13.390;2023-06-14T00:46:13;101195.47;;;11.44;100.00
36092;BME280;22147;52.388;13.390;2023-06-14T00:48:44;101187.78;;;11.41;100.00
36092;BME280;22147;52.388;13.390;2023-06-14T00:51:14;101188.41;;;11.38;100.00
36092;BME280;22147;52.388;13.390;2023-06-14T00:53:44;101200.19;;;11.35;100.00
36092;BME280;22147;52.388;13.390;2023-06-14T00:56:17;101204.09;;;11.34;100.00
36092;BME280;22147;52.388;13.390;2023-06-14T00:58:50;101192.34;;;11.37;100.00
36092;BME280;22147;52.388;13.390;2023-06-14T01:01:20;101192.81;;;11.30;100.00
36092;BME280;22147;52.388;13.390;2023-06-14T01:03:51;101195.09;;;11.28;100.00
36092;BME280;22147;52.388;13.390;2023-06-14T01:09:57;101189.84;;;11.27;100.00
36092;BME280;22147;52.388;13.390;2023-06-14T01:15:21;101191.63;;;11.23;100.00
36092;BME280;22147;52.388;13.390;2023-06-14T01:17:51;101189.81;;;11.18;100.00
36092;BME280;22147;52.388;13.390;2023-06-14T01:20:29;101188.16;;;11.17;100.00
36092;BME280;22147;52.388;13.390;2023-06-14T01:23:02;101196.00;;;11.15;100.00
36092;BME280;22147;52.388;13.390;2023-06-14T01:25:33;101181.59;;;11.13;100.00
36092;BME280;22147;52.388;13.390;2023-06-14T01:28:07;101190.09;;;11.08;100.00
36092;BME280;22147;52.388;13.390;2023-06-14T01:30:44;101191.38;;;11.02;100.00
36092;BME280;22147;52.388;13.390;2023-06-14T01:33:21;101184.16;;;11.00;100.00
36092;BME280;22147;52.388;13.390;2023-06-14T01:35:56;101187.59;;;10.97;100.00
36092;BME280;22147;52.388;13.390;2023-06-14T01:38:29;101187.28;;;10.99;100.00
36092;BME280;22147;52.388;13.390;2023-06-14T01:41:02;101192.03;;;10.98;100.00
36092;BME280;22147;52.388;13.390;2023-06-14T01:43:34;101187.91;;;10.96;100.00
36092;BME280;22147;52.388;13.390;2023-06-14T01:46:07;101185.78;;;10.93;100.00
36092;BME280;22147;52.388;13.390;2023-06-14T01:48:39;101186.75;;;10.88;100.00
36092;BME280;22147;52.388;13.390;2023-06-14T01:51:09;101189.84;;;10.87;100.00
36092;BME280;22147;52.388;13.390;2023-06-14T01:53:39;101188.31;;;10.80;100.00
36092;BME280;22147;52.388;13.390;2023-06-14T01:56:09;101178.16;;;10.76;100.00
36092;BME280;22147;52.388;13.390;2023-06-14T01:58:40;101183.53;;;10.72;100.00
36092;BME280;22147;52.388;13.390;2023-06-14T02:01:10;101192.06;;;10.76;100.00
36092;BME280;22147;52.388;13.390;2023-06-14T02:03:42;101190.25;;;10.71;100.00
36092;BME280;22147;52.388;13.390;2023-06-14T02:06:14;101191.50;;;10.65;100.00
36092;BME280;22147;52.388;13.390;2023-06-14T02:08:45;101193.78;;;10.63;100.00
36092;BME280;22147;52.388;13.390;2023-06-14T02:11:14;101198.19;;;10.64;100.00
36092;BME280;22147;52.388;13.390;2023-06-14T02:13:42;101198.31;;;10.59;100.00
36092;BME280;22147;52.388;13.390;2023-06-14T02:16:11;101196.16;;;10.56;100.00
36092;BME280;22147;52.388;13.390;2023-06-14T02:18:39;101197.13;;;10.51;100.00
36092;BME280;22147;52.388;13.390;2023-06-14T02:21:07;101189.44;;;10.48;100.00
36092;BME280;22147;52.388;13.390;2023-06-14T02:23:36;101201.34;;;10.49;100.00
36092;BME280;22147;52.388;13.390;2023-06-14T02:26:04;101195.94;;;10.44;100.00
36092;BME280;22147;52.388;13.390;2023-06-14T02:28:33;101194.94;;;10.39;100.00
36092;BME280;22147;52.388;13.390;2023-06-14T02:31:05;101194.44;;;10.37;100.00
36092;BME280;22147;52.388;13.390;2023-06-14T02:33:33;101194.09;;;10.39;100.00
36092;BME280;22147;52.388;13.390;2023-06-14T02:36:02;101199.13;;;10.37;100.00
36092;BME280;22147;52.388;13.390;2023-06-14T02:38:30;101197.81;;;10.34;100.00
36092;BME280;22147;52.388;13.390;2023-06-14T02:40:58;101202.88;;;10.32;100.00
36092;BME280;22147;52.388;13.390;2023-06-14T02:43:29;101200.94;;;10.33;100.00
36092;BME280;22147;52.388;13.390;2023-06-14T02:45:58;101202.06;;;10.32;100.00
36092;BME280;22147;52.388;13.390;2023-06-14T02:48:27;101202.66;;;10.29;100.00
36092;BME280;22147;52.388;13.390;2023-06-14T02:50:58;101204.31;;;10.30;100.00
36092;BME280;22147;52.388;13.390;2023-06-14T02:53:28;101207.09;;;10.30;100.00
36092;BME280;22147;52.388;13.390;2023-06-14T02:55:58;101197.66;;;10.31;100.00
36092;BME280;22147;52.388;13.390;2023-06-14T02:58:30;101204.81;;;10.32;100.00
36092;BME280;22147;52.388;13.390;2023-06-14T03:01:00;101201.75;;;10.33;100.00
36092;BME280;22147;52.388;13.390;2023-06-14T03:03:33;101201.53;;;10.30;100.00
36092;BME280;22147;52.388;13.390;2023-06-14T03:06:04;101204.31;;;10.30;100.00
36092;BME280;22147;52.388;13.390;2023-06-14T03:08:34;101207.38;;;10.28;100.00
36092;BME280;22147;52.388;13.390;2023-06-14T03:11:08;101198.22;;;10.28;100.00
36092;BME280;22147;52.388;13.390;2023-06-14T03:13:39;101193.22;;;10.30;100.00
36092;BME280;22147;52.388;13.390;2023-06-14T03:16:10;101202.97;;;10.27;100.00
36092;BME280;22147;52.388;13.390;2023-06-14T03:18:40;101197.72;;;10.26;100.00
36092;BME280;22147;52.388;13.390;2023-06-14T03:21:11;101194.94;;;10.26;100.00
36092;BME280;22147;52.388;13.390;2023-06-14T03:23:42;101200.44;;;10.31;100.00
36092;BME280;22147;52.388;13.390;2023-06-14T03:26:14;101205.34;;;10.34;100.00
36092;BME280;22147;52.388;13.390;2023-06-14T03:28:45;101205.03;;;10.35;100.00
36092;BME280;22147;52.388;13.390;2023-06-14T03:31:16;101209.44;;;10.36;100.00
36092;BME280;22147;52.388;13.390;2023-06-14T03:33:44;101213.03;;;10.37;100.00
36092;BME280;22147;52.388;13.390;2023-06-14T03:36:13;101215.50;;;10.38;100.00
36092;BME280;22147;52.388;13.390;2023-06-14T03:38:41;101214.38;;;10.39;100.00
36092;BME280;22147;52.388;13.390;2023-06-14T03:41:10;101213.41;;;10.44;100.00
36092;BME280;22147;52.388;13.390;2023-06-14T03:43:38;101224.38;;;10.49;100.00
36092;BME280;22147;52.388;13.390;2023-06-14T03:46:06;101221.81;;;10.53;100.00
36092;BME280;22147;52.388;13.390;2023-06-14T03:48:35;101224.78;;;10.56;100.00
36092;BME280;22147;52.388;13.390;2023-06-14T03:51:03;101221.56;;;10.63;100.00
36092;BME280;22147;52.388;13.390;2023-06-14T03:53:32;101223.69;;;10.66;100.00
36092;BME280;22147;52.388;13.390;2023-06-14T03:56:00;101221.72;;;10.67;100.00
36092;BME280;22147;52.388;13.390;2023-06-14T03:58:28;101225.84;;;10.69;100.00
36092;BME280;22147;52.388;13.390;2023-06-14T04:00:57;101225.72;;;10.74;100.00
36092;BME280;22147;52.388;13.390;2023-06-14T04:03:25;101229.28;;;10.75;100.00
36092;BME280;22147;52.388;13.390;2023-06-14T04:06:00;101224.59;;;10.75;100.00
36092;BME280;22147;52.388;13.390;2023-06-14T04:08:31;101227.88;;;10.77;100.00
36092;BME280;22147;52.388;13.390;2023-06-14T04:11:02;101231.16;;;10.79;100.00
36092;BME280;22147;52.388;13.390;2023-06-14T04:13:32;101230.81;;;10.81;100.00
36092;BME280;22147;52.388;13.390;2023-06-14T04:16:05;101230.69;;;10.86;100.00
36092;BME280;22147;52.388;13.390;2023-06-14T04:18:35;101230.75;;;10.95;100.00
36092;BME280;22147;52.388;13.390;2023-06-14T04:21:05;101232.09;;;11.06;100.00
36092;BME280;22147;52.388;13.390;2023-06-14T04:23:38;101241.16;;;11.20;100.00
36092;BME280;22147;52.388;13.390;2023-06-14T04:26:08;101243.72;;;11.39;100.00
36092;BME280;22147;52.388;13.390;2023-06-14T04:28:40;101250.78;;;11.54;100.00
36092;BME280;22147;52.388;13.390;2023-06-14T04:31:10;101240.69;;;11.67;100.00
36092;BME280;22147;52.388;13.390;2023-06-14T04:33:41;101235.63;;;11.78;100.00
36092;BME280;22147;52.388;13.390;2023-06-14T04:36:17;101237.63;;;11.86;100.00
36092;BME280;22147;52.388;13.390;2023-06-14T04:38:48;101237.00;;;11.98;100.00
36092;BME280;22147;52.388;13.390;2023-06-14T04:41:20;101237.38;;;12.14;100.00
36092;BME280;22147;52.388;13.390;2023-06-14T04:43:52;101233.78;;;12.31;100.00
36092;BME280;22147;52.388;13.390;2023-06-14T04:46:23;101233.78;;;12.31;100.00
36092;BME280;22147;52.388;13.390;2023-06-14T04:48:53;101238.34;;;12.35;100.00
36092;BME280;22147;52.388;13.390;2023-06-14T04:51:24;101242.47;;;12.47;100.00
36092;BME280;22147;52.388;13.390;2023-06-14T04:53:59;101237.88;;;12.59;100.00
36092;BME280;22147;52.388;13.390;2023-06-14T04:56:30;101245.88;;;12.78;100.00
36092;BME280;22147;52.388;13.390;2023-06-14T04:59:01;101246.63;;;12.96;100.00
36092;BME280;22147;52.388;13.390;2023-06-14T05:01:32;101248.56;;;13.13;100.00
36092;BME280;22147;52.388;13.390;2023-06-14T05:04:04;101246.22;;;13.24;100.00
36092;BME280;22147;52.388;13.390;2023-06-14T05:06:34;101251.81;;;13.33;100.00
36092;BME280;22147;52.388;13.390;2023-06-14T05:09:06;101244.84;;;13.48;100.00
36092;BME280;22147;52.388;13.390;2023-06-14T05:11:36;101248.06;;;13.58;100.00
36092;BME280;22147;52.388;13.390;2023-06-14T05:14:06;101257.53;;;13.75;100.00
36092;BME280;22147;52.388;13.390;2023-06-14T05:16:37;101255.38;;;13.80;100.00
36092;BME280;22147;52.388;13.390;2023-06-14T05:19:07;101261.84;;;13.63;100.00
36092;BME280;22147;52.388;13.390;2023-06-14T05:21:37;101253.16;;;13.56;100.00
36092;BME280;22147;52.388;13.390;2023-06-14T05:24:12;101267.75;;;13.62;100.00
36092;BME280;22147;52.388;13.390;2023-06-14T05:26:42;101263.63;;;13.68;100.00
36092;BME280;22147;52.388;13.390;2023-06-14T05:29:13;101265.03;;;13.83;100.00
36092;BME280;22147;52.388;13.390;2023-06-14T05:31:43;101261.31;;;14.00;100.00
36092;BME280;22147;52.388;13.390;2023-06-14T05:34:14;101264.38;;;14.07;100.00
36092;BME280;22147;52.388;13.390;2023-06-14T05:36:44;101269.00;;;14.03;100.00
36092;BME280;22147;52.388;13.390;2023-06-14T05:39:14;101265.81;;;14.13;100.00
36092;BME280;22147;52.388;13.390;2023-06-14T05:41:43;101268.47;;;14.31;100.00
36092;BME280;22147;52.388;13.390;2023-06-14T05:44:11;101272.63;;;14.45;100.00
36092;BME280;22147;52.388;13.390;2023-06-14T05:46:40;101273.56;;;14.58;100.00
36092;BME280;22147;52.388;13.390;2023-06-14T05:49:08;101281.50;;;14.69;100.00
36092;BME280;22147;52.388;13.390;2023-06-14T05:51:37;101284.44;;;14.72;100.00
36092;BME280;22147;52.388;13.390;2023-06-14T05:54:05;101280.84;;;14.72;100.00
36092;BME280;22147;52.388;13.390;2023-06-14T05:56:33;101279.56;;;14.69;100.00
36092;BME280;22147;52.388;13.390;2023-06-14T05:59:02;101279.34;;;14.74;100.00
36092;BME280;22147;52.388;13.390;2023-06-14T06:01:30;101288.34;;;14.80;100.00
36092;BME280;22147;52.388;13.390;2023-06-14T06:04:02;101281.09;;;14.79;100.00
36092;BME280;22147;52.388;13.390;2023-06-14T06:06:30;101281.75;;;14.63;100.00
36092;BME280;22147;52.388;13.390;2023-06-14T06:08:59;101282.22;;;14.65;100.00
36092;BME280;22147;52.388;13.390;2023-06-14T06:11:27;101276.28;;;14.67;100.00
36092;BME280;22147;52.388;13.390;2023-06-14T06:14:09;101285.25;;;14.73;100.00
36092;BME280;22147;52.388;13.390;2023-06-14T06:16:39;101287.47;;;14.67;100.00
36092;BME280;22147;52.388;13.390;2023-06-14T06:19:10;101290.94;;;14.64;100.00
36092;BME280;22147;52.388;13.390;2023-06-14T06:21:40;101294.28;;;14.57;100.00
36092;BME280;22147;52.388;13.390;2023-06-14T06:24:10;101288.47;;;14.62;100.00
36092;BME280;22147;52.388;13.390;2023-06-14T06:26:41;101292.66;;;14.56;100.00
36092;BME280;22147;52.388;13.390;2023-06-14T06:29:11;101284.44;;;14.51;100.00
36092;BME280;22147;52.388;13.390;2023-06-14T06:31:42;101285.41;;;14.55;100.00
36092;BME280;22147;52.388;13.390;2023-06-14T06:34:12;101281.47;;;14.56;100.00
36092;BME280;22147;52.388;13.390;2023-06-14T06:36:42;101282.78;;;14.59;100.00
36092;BME280;22147;52.388;13.390;2023-06-14T06:39:11;101286.09;;;14.73;100.00
36092;BME280;22147;52.388;13.390;2023-06-14T06:41:39;101296.34;;;14.69;100.00
36092;BME280;22147;52.388;13.390;2023-06-14T06:44:08;101287.09;;;14.69;100.00
36092;BME280;22147;52.388;13.390;2023-06-14T06:46:40;101294.25;;;14.78;100.00
36092;BME280;22147;52.388;13.390;2023-06-14T06:49:10;101300.56;;;14.75;100.00
36092;BME280;22147;52.388;13.390;2023-06-14T06:52:03;101291.13;;;14.80;100.00
36092;BME280;22147;52.388;13.390;2023-06-14T06:54:34;101301.63;;;14.83;100.00
36092;BME280;22147;52.388;13.390;2023-06-14T06:57:05;101299.09;;;14.90;100.00
36092;BME280;22147;52.388;13.390;2023-06-14T06:59:36;101300.78;;;15.03;100.00
36092;BME280;22147;52.388;13.390;2023-06-14T07:02:07;101309.69;;;15.18;100.00
36092;BME280;22147;52.388;13.390;2023-06-14T07:04:37;101308.19;;;15.33;100.00
36092;BME280;22147;52.388;13.390;2023-06-14T07:07:07;101302.72;;;15.48;100.00
36092;BME280;22147;52.388;13.390;2023-06-14T07:09:39;101306.63;;;15.81;100.00
36092;BME280;22147;52.388;13.390;2023-06-14T07:12:11;101313.88;;;15.94;100.00
36092;BME280;22147;52.388;13.390;2023-06-14T07:14:41;101319.84;;;15.93;100.00
36092;BME280;22147;52.388;13.390;2023-06-14T07:17:12;101324.59;;;16.17;99.40
36092;BME280;22147;52.388;13.390;2023-06-14T07:19:42;101327.50;;;16.33;98.56
36092;BME280;22147;52.388;13.390;2023-06-14T07:22:12;101331.44;;;16.56;95.99
36092;BME280;22147;52.388;13.390;2023-06-14T07:24:42;101332.31;;;16.85;93.77
36092;BME280;22147;52.388;13.390;2023-06-14T07:27:13;101323.94;;;17.45;93.22
36092;BME280;22147;52.388;13.390;2023-06-14T07:29:44;101337.00;;;18.01;87.11
36092;BME280;22147;52.388;13.390;2023-06-14T07:32:14;101339.19;;;18.43;86.70
36092;BME280;22147;52.388;13.390;2023-06-14T07:34:45;101334.69;;;18.22;81.83
36092;BME280;22147;52.388;13.390;2023-06-14T07:37:15;101333.47;;;18.04;85.14
36092;BME280;22147;52.388;13.390;2023-06-14T07:39:45;101330.75;;;17.92;85.28
36092;BME280;22147;52.388;13.390;2023-06-14T07:42:15;101325.25;;;17.95;88.91
36092;BME280;22147;52.388;13.390;2023-06-14T07:44:45;101333.09;;;18.05;85.48
36092;BME280;22147;52.388;13.390;2023-06-14T07:47:16;101331.13;;;17.90;84.95
36092;BME280;22147;52.388;13.390;2023-06-14T07:49:46;101323.94;;;17.93;84.94
36092;BME280;22147;52.388;13.390;2023-06-14T07:52:16;101323.34;;;17.83;85.73
36092;BME280;22147;52.388;13.390;2023-06-14T07:54:47;101322.75;;;17.78;86.94
36092;BME280;22147;52.388;13.390;2023-06-14T07:57:17;101321.94;;;17.77;84.77
36092;BME280;22147;52.388;13.390;2023-06-14T07:59:50;101317.06;;;17.58;86.55
36092;BME280;22147;52.388;13.390;2023-06-14T08:02:20;101315.16;;;17.46;87.69
36092;BME280;22147;52.388;13.390;2023-06-14T08:04:51;101313.34;;;17.54;89.25
36092;BME280;22147;52.388;13.390;2023-06-14T08:07:21;101306.28;;;17.60;88.09
36092;BME280;22147;52.388;13.390;2023-06-14T08:09:51;101311.63;;;17.49;86.51
36092;BME280;22147;52.388;13.390;2023-06-14T08:12:21;101309.09;;;17.44;87.55
36092;BME280;22147;52.388;13.390;2023-06-14T08:14:52;101315.75;;;17.40;87.55
36092;BME280;22147;52.388;13.390;2023-06-14T08:17:43;101307.25;;;17.52;87.09
36092;BME280;22147;52.388;13.390;2023-06-14T08:20:14;101309.88;;;17.61;88.35
36092;BME280;22147;52.388;13.390;2023-06-14T08:22:46;101318.31;;;17.61;85.85
36092;BME280;22147;52.388;13.390;2023-06-14T08:25:17;101317.41;;;17.57;85.91
36092;BME280;22147;52.388;13.390;2023-06-14T08:27:48;101319.06;;;17.58;87.87
36092;BME280;22147;52.388;13.390;2023-06-14T08:30:20;101321.84;;;17.58;85.90
36092;BME280;22147;52.388;13.390;2023-06-14T08:32:50;101318.66;;;17.43;87.60
36092;BME280;22147;52.388;13.390;2023-06-14T08:35:39;101309.91;;;17.45;86.81
36092;BME280;22147;52.388;13.390;2023-06-14T08:38:11;101315.88;;;17.59;85.94
36092;BME280;22147;52.388;13.390;2023-06-14T08:40:42;101317.72;;;17.67;86.20
36092;BME280;22147;52.388;13.390;2023-06-14T08:43:12;101319.38;;;17.84;86.32
36092;BME280;22147;52.388;13.390;2023-06-14T08:45:42;101321.44;;;18.03;83.37
36092;BME280;22147;52.388;13.390;2023-06-14T08:48:14;101320.38;;;18.11;82.30
36092;BME280;22147;52.388;13.390;2023-06-14T08:50:48;101318.41;;;18.12;81.90
36092;BME280;22147;52.388;13.390;2023-06-14T08:53:23;101328.75;;;18.08;82.42
36092;BME280;22147;52.388;13.390;2023-06-14T08:55:54;101320.50;;;18.15;82.53
36092;BME280;22147;52.388;13.390;2023-06-14T08:58:25;101334.47;;;18.47;81.15
36092;BME280;22147;52.388;13.390;2023-06-14T09:00:55;101325.59;;;18.64;80.76
36092;BME280;22147;52.388;13.390;2023-06-14T09:03:26;101322.09;;;18.87;79.20
36092;BME280;22147;52.388;13.390;2023-06-14T09:06:00;101324.06;;;19.06;78.84
36092;BME280;22147;52.388;13.390;2023-06-14T09:08:30;101319.84;;;18.96;75.49
36092;BME280;22147;52.388;13.390;2023-06-14T09:11:02;101326.38;;;19.00;75.65
36092;BME280;22147;52.388;13.390;2023-06-14T09:13:32;101326.41;;;19.23;76.02
36092;BME280;22147;52.388;13.390;2023-06-14T09:16:03;101319.28;;;19.29;74.17
36092;BME280;22147;52.388;13.390;2023-06-14T09:18:40;101323.47;;;19.16;74.67
36092;BME280;22147;52.388;13.390;2023-06-14T09:21:15;101327.53;;;19.19;74.15
36092;BME280;22147;52.388;13.390;2023-06-14T09:23:47;101327.63;;;19.22;74.92
36092;BME280;22147;52.388;13.390;2023-06-14T09:26:19;101329.75;;;19.29;72.46
36092;BME280;22147;52.388;13.390;2023-06-14T09:28:50;101338.88;;;19.22;72.82
36092;BME280;22147;52.388;13.390;2023-06-14T09:31:21;101343.31;;;19.23;72.76
36092;BME280;22147;52.388;13.390;2023-06-14T09:33:55;101336.19;;;19.29;72.78
36092;BME280;22147;52.388;13.390;2023-06-14T09:36:26;101335.06;;;19.34;71.09
36092;BME280;22147;52.388;13.390;2023-06-14T09:39:01;101330.84;;;19.44;72.88
36092;BME280;22147;52.388;13.390;2023-06-14T09:41:36;101330.19;;;19.73;70.67
36092;BME280;22147;52.388;13.390;2023-06-14T09:44:10;101330.09;;;19.70;68.07
36092;BME280;22147;52.388;13.390;2023-06-14T09:46:50;101327.81;;;19.76;71.71
36092;BME280;22147;52.388;13.390;2023-06-14T09:49:21;101331.13;;;19.62;70.73
36092;BME280;22147;52.388;13.390;2023-06-14T09:51:57;101332.81;;;19.20;70.19
36092;BME280;22147;52.388;13.390;2023-06-14T09:54:31;101325.28;;;19.47;71.32
36092;BME280;22147;52.388;13.390;2023-06-14T09:57:07;101324.69;;;19.61;72.35
36092;BME280;22147;52.388;13.390;2023-06-14T09:59:44;101329.13;;;19.82;72.56
36092;BME280;22147;52.388;13.390;2023-06-14T10:02:29;101330.53;;;19.95;72.12
36092;BME280;22147;52.388;13.390;2023-06-14T10:05:14;101316.75;;;20.17;69.25
36092;BME280;22147;52.388;13.390;2023-06-14T10:10:17;101326.38;;;20.12;68.41
36092;BME280;22147;52.388;13.390;2023-06-14T10:12:48;101317.16;;;20.15;68.59
36092;BME280;22147;52.388;13.390;2023-06-14T10:15:40;101318.50;;;20.25;69.19
36092;BME280;22147;52.388;13.390;2023-06-14T10:18:45;101316.53;;;20.29;66.84
36092;BME280;22147;52.388;13.390;2023-06-14T10:21:58;101315.03;;;20.35;66.45
36092;BME280;22147;52.388;13.390;2023-06-14T10:24:44;101316.91;;;20.27;66.24
36092;BME280;22147;52.388;13.390;2023-06-14T10:27:15;101318.44;;;20.48;67.25
36092;BME280;22147;52.388;13.390;2023-06-14T10:32:25;101319.03;;;20.61;66.11
36092;BME280;22147;52.388;13.390;2023-06-14T10:35:04;101318.06;;;20.80;64.16
36092;BME280;22147;52.388;13.390;2023-06-14T10:37:36;101312.84;;;20.82;64.72
36092;BME280;22147;52.388;13.390;2023-06-14T10:40:07;101308.56;;;20.95;64.34
36092;BME280;22147;52.388;13.390;2023-06-14T10:42:56;101313.22;;;20.80;65.20
36092;BME280;22147;52.388;13.390;2023-06-14T10:45:26;101318.00;;;20.76;62.43
36092;BME280;22147;52.388;13.390;2023-06-14T10:47:57;101310.31;;;20.73;62.36
36092;BME280;22147;52.388;13.390;2023-06-14T10:50:28;101318.75;;;20.69;61.71
36092;BME280;22147;52.388;13.390;2023-06-14T10:52:59;101317.13;;;20.68;62.80
36092;BME280;22147;52.388;13.390;2023-06-14T10:55:35;101309.69;;;20.57;63.58
36092;BME280;22147;52.388;13.390;2023-06-14T10:58:05;101306.59;;;20.65;63.22
36092;BME280;22147;52.388;13.390;2023-06-14T11:00:37;101308.94;;;20.06;64.26
36092;BME280;22147;52.388;13.390;2023-06-14T11:06:49;101294.59;;;19.88;65.40
36092;BME280;22147;52.388;13.390;2023-06-14T11:09:54;101294.97;;;20.13;65.93
36092;BME280;22147;52.388;13.390;2023-06-14T11:12:51;101293.25;;;20.62;68.07
36092;BME280;22147;52.388;13.390;2023-06-14T11:15:35;101279.78;;;20.79;63.73
36092;BME280;22147;52.388;13.390;2023-06-14T11:18:08;101280.75;;;20.97;62.53
36092;BME280;22147;52.388;13.390;2023-06-14T11:20:41;101279.69;;;21.09;60.86
36092;BME280;22147;52.388;13.390;2023-06-14T11:23:11;101275.59;;;21.03;62.40
36092;BME280;22147;52.388;13.390;2023-06-14T11:25:42;101283.78;;;21.15;62.61
36092;BME280;22147;52.388;13.390;2023-06-14T11:28:12;101280.59;;;21.20;62.20
36092;BME280;22147;52.388;13.390;2023-06-14T11:30:42;101273.06;;;21.31;61.71
36092;BME280;22147;52.388;13.390;2023-06-14T11:33:17;101274.09;;;21.12;62.14
36092;BME280;22147;52.388;13.390;2023-06-14T11:35:47;101276.97;;;21.20;61.38
36092;BME280;22147;52.388;13.390;2023-06-14T11:38:18;101272.72;;;21.37;62.78
36092;BME280;22147;52.388;13.390;2023-06-14T11:40:46;101265.63;;;21.53;59.66
36092;BME280;22147;52.388;13.390;2023-06-14T11:43:14;101253.69;;;21.33;58.85
36092;BME280;22147;52.388;13.390;2023-06-14T11:45:43;101258.41;;;21.19;61.02
36092;BME280;22147;52.388;13.390;2023-06-14T11:48:42;101249.25;;;21.32;59.70
36092;BME280;22147;52.388;13.390;2023-06-14T11:51:13;101257.69;;;21.25;62.14
36092;BME280;22147;52.388;13.390;2023-06-14T11:53:43;101256.56;;;21.37;61.33
36092;BME280;22147;52.388;13.390;2023-06-14T11:56:14;101258.03;;;21.61;60.26
36092;BME280;22147;52.388;13.390;2023-06-14T11:58:46;101247.56;;;21.65;57.95
36092;BME280;22147;52.388;13.390;2023-06-14T12:01:17;101241.69;;;21.92;59.62
36092;BME280;22147;52.388;13.390;2023-06-14T12:03:50;101241.41;;;22.11;58.38
36092;BME280;22147;52.388;13.390;2023-06-14T12:06:30;101247.56;;;22.24;57.30
36092;BME280;22147;52.388;13.390;2023-06-14T12:09:08;101246.81;;;22.38;56.10
36092;BME280;22147;52.388;13.390;2023-06-14T12:11:43;101242.72;;;22.28;55.43
36092;BME280;22147;52.388;13.390;2023-06-14T12:14:13;101236.09;;;21.47;55.51
36092;BME280;22147;52.388;13.390;2023-06-14T12:16:44;101227.75;;;21.17;57.12
36092;BME280;22147;52.388;13.390;2023-06-14T12:19:17;101225.00;;;20.87;57.90
36092;BME280;22147;52.388;13.390;2023-06-14T12:21:48;101220.63;;;20.93;58.63
36092;BME280;22147;52.388;13.390;2023-06-14T12:24:19;101225.41;;;21.26;56.08
36092;BME280;22147;52.388;13.390;2023-06-14T12:26:51;101227.88;;;21.35;57.56
36092;BME280;22147;52.388;13.390;2023-06-14T12:29:22;101223.19;;;21.46;57.84
36092;BME280;22147;52.388;13.390;2023-06-14T12:31:53;101214.81;;;21.57;57.04
36092;BME280;22147;52.388;13.390;2023-06-14T12:34:27;101223.34;;;21.68;53.24
36092;BME280;22147;52.388;13.390;2023-06-14T12:36:57;101214.03;;;21.67;54.01
36092;BME280;22147;52.388;13.390;2023-06-14T12:39:27;101211.75;;;21.80;53.37
36092;BME280;22147;52.388;13.390;2023-06-14T12:41:58;101218.66;;;21.90;53.38
36092;BME280;22147;52.388;13.390;2023-06-14T12:44:29;101223.19;;;22.05;53.03
36092;BME280;22147;52.388;13.390;2023-06-14T12:46:59;101213.13;;;22.11;52.80
36092;BME280;22147;52.388;13.390;2023-06-14T12:49:29;101213.06;;;22.01;52.55
36092;BME280;22147;52.388;13.390;2023-06-14T12:52:00;101207.97;;;21.62;52.14
36092;BME280;22147;52.388;13.390;2023-06-14T12:54:30;101202.56;;;21.42;51.33
36092;BME280;22147;52.388;13.390;2023-06-14T12:57:07;101198.75;;;21.72;52.30
36092;BME280;22147;52.388;13.390;2023-06-14T12:59:35;101203.88;;;21.55;52.38
36092;BME280;22147;52.388;13.390;2023-06-14T13:02:19;101195.94;;;21.75;52.94
36092;BME280;22147;52.388;13.390;2023-06-14T13:04:53;101189.19;;;21.91;51.02
36092;BME280;22147;52.388;13.390;2023-06-14T13:07:21;101200.59;;;22.12;52.16
36092;BME280;22147;52.388;13.390;2023-06-14T13:09:49;101196.13;;;22.04;49.23
36092;BME280;22147;52.388;13.390;2023-06-14T13:12:17;101189.38;;;22.23;48.73
36092;BME280;22147;52.388;13.390;2023-06-14T13:14:46;101185.59;;;21.98;49.20